createdAt,value
2019-02-24T00:00:53.141Z,1014.64
2019-02-24T00:01:53.167Z,1014.62
2019-02-24T00:02:53.195Z,1014.62
2019-02-24T00:03:54.668Z,1014.61
2019-02-24T00:04:53.247Z,1014.65
2019-02-24T00:05:53.271Z,1014.65
2019-02-24T00:06:53.298Z,1014.65
2019-02-24T00:07:53.324Z,1014.60
2019-02-24T00:08:53.347Z,1014.60
2019-02-24T00:09:53.374Z,1014.60
2019-02-24T00:10:53.402Z,1014.55
2019-02-24T00:11:53.427Z,1014.55
2019-02-24T00:12:53.450Z,1014.53
2019-02-24T00:13:53.477Z,1014.52
2019-02-24T00:14:53.503Z,1014.54
2019-02-24T00:15:53.530Z,1014.50
2019-02-24T00:16:53.554Z,1014.49
2019-02-24T00:17:53.582Z,1014.50
2019-02-24T00:18:53.606Z,1014.53
2019-02-24T00:19:53.632Z,1014.50
2019-02-24T00:20:53.660Z,1014.47
2019-02-24T00:21:53.683Z,1014.53
2019-02-24T00:22:53.713Z,1014.49
2019-02-24T00:23:53.734Z,1014.48
2019-02-24T00:24:53.761Z,1014.48
2019-02-24T00:25:53.785Z,1014.48
2019-02-24T00:26:53.811Z,1014.44
2019-02-24T00:27:53.837Z,1014.44
2019-02-24T00:28:53.864Z,1014.44
2019-02-24T00:29:53.887Z,1014.51
2019-02-24T00:30:53.913Z,1014.47
2019-02-24T00:31:53.941Z,1014.49
2019-02-24T00:32:53.964Z,1014.49
2019-02-24T00:33:53.991Z,1014.46
2019-02-24T00:34:54.015Z,1014.42
2019-02-24T00:35:54.042Z,1014.45
2019-02-24T00:36:54.065Z,1014.43
2019-02-24T00:37:54.090Z,1014.38
2019-02-24T00:38:54.115Z,1014.41
2019-02-24T00:39:54.141Z,1014.38
2019-02-24T00:40:54.167Z,1014.40
2019-02-24T00:41:54.193Z,1014.41
2019-02-24T00:42:54.218Z,1014.36
2019-02-24T00:43:54.246Z,1014.41
2019-02-24T00:44:54.270Z,1014.42
2019-02-24T00:45:54.295Z,1014.44
2019-02-24T00:46:54.320Z,1014.45
2019-02-24T00:47:54.346Z,1014.38
2019-02-24T00:48:54.369Z,1014.47
2019-02-24T00:49:54.395Z,1014.43
2019-02-24T00:50:54.422Z,1014.41
2019-02-24T00:51:54.447Z,1014.46
2019-02-24T00:52:54.472Z,1014.43
2019-02-24T00:53:54.498Z,1014.46
2019-02-24T00:54:54.523Z,1014.44
2019-02-24T00:55:54.548Z,1014.44
2019-02-24T00:56:54.572Z,1014.38
2019-02-24T00:57:54.599Z,1014.39
2019-02-24T00:58:54.628Z,1014.44
2019-02-24T00:59:54.649Z,1014.43
2019-02-24T01:00:54.675Z,1014.45
2019-02-24T01:01:54.699Z,1014.46
2019-02-24T01:02:54.726Z,1014.45
2019-02-24T01:03:54.751Z,1014.45
2019-02-24T01:04:54.774Z,1014.47
2019-02-24T01:05:54.800Z,1014.48
2019-02-24T01:06:54.825Z,1014.48
2019-02-24T01:07:54.851Z,1014.44
2019-02-24T01:08:54.875Z,1014.45
2019-02-24T01:09:54.902Z,1014.49
2019-02-24T01:10:54.927Z,1014.46
2019-02-24T01:11:54.951Z,1014.42
2019-02-24T01:12:54.977Z,1014.43
2019-02-24T01:13:55.002Z,1014.43
2019-02-24T01:14:55.028Z,1014.37
2019-02-24T01:15:55.052Z,1014.38
2019-02-24T01:16:55.075Z,1014.38
2019-02-24T01:17:55.103Z,1014.41
2019-02-24T01:18:55.130Z,1014.39
2019-02-24T01:19:55.155Z,1014.33
2019-02-24T01:20:55.178Z,1014.30
2019-02-24T01:21:55.201Z,1014.29
2019-02-24T01:22:55.227Z,1014.32
2019-02-24T01:23:55.254Z,1014.27
2019-02-24T01:24:55.275Z,1014.27
2019-02-24T01:25:55.302Z,1014.24
2019-02-24T01:26:55.327Z,1014.27
2019-02-24T01:27:55.351Z,1014.21
2019-02-24T01:28:55.377Z,1014.21
2019-02-24T01:29:55.402Z,1014.17
2019-02-24T01:30:55.428Z,1014.21
2019-02-24T01:31:55.453Z,1014.16
2019-02-24T01:32:55.475Z,1014.20
2019-02-24T01:33:55.505Z,1014.17
2019-02-24T01:34:55.526Z,1014.13
2019-02-24T01:35:55.555Z,1014.21
2019-02-24T01:36:55.575Z,1014.20
2019-02-24T01:37:55.600Z,1014.10
2019-02-24T01:38:55.627Z,1014.04
2019-02-24T01:39:55.651Z,1014.08
2019-02-24T01:40:55.676Z,1014.12
2019-02-24T01:41:55.700Z,1014.07
2019-02-24T01:42:55.727Z,1014.06
2019-02-24T01:43:55.750Z,1014.06
2019-02-24T01:44:55.774Z,1014.01
2019-02-24T01:45:55.799Z,1014.04
2019-02-24T01:46:55.826Z,1013.98
2019-02-24T01:47:55.849Z,1013.95
2019-02-24T01:48:55.873Z,1013.96
2019-02-24T01:49:55.898Z,1013.96
2019-02-24T01:50:55.927Z,1013.93
2019-02-24T01:51:55.949Z,1013.94
2019-02-24T01:52:56.005Z,1013.98
2019-02-24T01:53:55.997Z,1013.95
2019-02-24T01:54:56.022Z,1013.94
2019-02-24T01:55:56.046Z,1013.94
2019-02-24T01:56:56.072Z,1013.96
2019-02-24T01:57:56.096Z,1013.95
2019-02-24T01:58:56.121Z,1014.00
2019-02-24T01:59:56.147Z,1013.97
2019-02-24T02:00:56.170Z,1013.96
2019-02-24T02:01:56.194Z,1013.98
2019-02-24T02:02:56.218Z,1013.94
2019-02-24T02:03:56.245Z,1013.96
2019-02-24T02:04:56.272Z,1014.01
2019-02-24T02:05:56.293Z,1014.00
2019-02-24T02:06:56.319Z,1013.99
2019-02-24T02:07:56.347Z,1013.96
2019-02-24T02:08:56.366Z,1013.92
2019-02-24T02:09:56.391Z,1013.98
2019-02-24T02:10:56.417Z,1013.93
2019-02-24T02:11:56.440Z,1013.93
2019-02-24T02:12:57.444Z,1013.95
2019-02-24T02:13:56.489Z,1013.94
2019-02-24T02:14:56.513Z,1013.88
2019-02-24T02:15:56.539Z,1013.96
2019-02-24T02:16:56.562Z,1014.00
2019-02-24T02:17:56.587Z,1013.93
2019-02-24T02:18:56.614Z,1013.93
2019-02-24T02:19:56.637Z,1013.92
2019-02-24T02:20:56.659Z,1013.89
2019-02-24T02:21:56.683Z,1013.98
2019-02-24T02:22:56.710Z,1013.97
2019-02-24T02:23:56.734Z,1014.00
2019-02-24T02:24:56.758Z,1013.92
2019-02-24T02:25:56.783Z,1013.92
2019-02-24T02:26:56.809Z,1013.93
2019-02-24T02:27:56.831Z,1013.95
2019-02-24T02:28:56.905Z,1013.96
2019-02-24T02:29:56.880Z,1013.94
2019-02-24T02:30:56.907Z,1013.95
2019-02-24T02:31:57.003Z,1013.94
2019-02-24T02:32:56.954Z,1013.90
2019-02-24T02:33:56.980Z,1013.91
2019-02-24T02:34:57.003Z,1013.94
2019-02-24T02:35:57.028Z,1013.90
2019-02-24T02:36:57.053Z,1013.95
2019-02-24T02:37:57.074Z,1013.97
2019-02-24T02:38:57.099Z,1013.92
2019-02-24T02:39:57.123Z,1013.94
2019-02-24T02:40:57.147Z,1013.96
2019-02-24T02:41:57.175Z,1013.90
2019-02-24T02:42:57.202Z,1013.90
2019-02-24T02:43:57.219Z,1013.87
2019-02-24T02:44:57.244Z,1013.87
2019-02-24T02:45:57.268Z,1013.87
2019-02-24T02:46:57.292Z,1013.92
2019-02-24T02:47:57.317Z,1013.93
2019-02-24T02:48:57.341Z,1013.87
2019-02-24T02:49:57.366Z,1013.89
2019-02-24T02:50:57.394Z,1013.88
2019-02-24T02:51:57.416Z,1013.93
2019-02-24T02:52:57.437Z,1013.95
2019-02-24T02:53:57.461Z,1013.91
2019-02-24T02:54:57.488Z,1013.93
2019-02-24T02:55:57.509Z,1013.93
2019-02-24T02:56:57.533Z,1013.92
2019-02-24T02:57:57.556Z,1013.95
2019-02-24T02:58:57.581Z,1013.95
2019-02-24T02:59:57.606Z,1013.95
2019-02-24T03:00:57.629Z,1013.93
2019-02-24T03:01:57.654Z,1013.91
2019-02-24T03:02:57.678Z,1013.90
2019-02-24T03:03:57.710Z,1013.90
2019-02-24T03:04:57.725Z,1013.86
2019-02-24T03:05:57.750Z,1013.88
2019-02-24T03:06:57.774Z,1013.90
2019-02-24T03:07:57.798Z,1013.84
2019-02-24T03:08:57.821Z,1013.82
2019-02-24T03:09:57.847Z,1013.87
2019-02-24T03:10:57.870Z,1013.85
2019-02-24T03:11:57.898Z,1013.86
2019-02-24T03:12:57.918Z,1013.87
2019-02-24T03:13:57.947Z,1013.86
2019-02-24T03:14:57.999Z,1013.88
2019-02-24T03:15:58.018Z,1013.85
2019-02-24T03:16:58.014Z,1013.91
2019-02-24T03:17:58.037Z,1013.93
2019-02-24T03:18:58.063Z,1013.83
2019-02-24T03:19:58.085Z,1013.83
2019-02-24T03:20:58.109Z,1013.87
2019-02-24T03:21:58.138Z,1013.87
2019-02-24T03:22:58.171Z,1013.84
2019-02-24T03:23:58.181Z,1013.82
2019-02-24T03:24:58.206Z,1013.87
2019-02-24T03:25:58.233Z,1013.83
2019-02-24T03:26:58.253Z,1013.85
2019-02-24T03:27:58.284Z,1013.86
2019-02-24T03:29:04.174Z,1013.86
2019-02-24T03:29:58.326Z,1013.89
2019-02-24T03:30:58.349Z,1013.90
2019-02-24T03:31:58.373Z,1013.84
2019-02-24T03:32:58.396Z,1013.85
2019-02-24T03:33:58.421Z,1013.88
2019-02-24T03:34:58.445Z,1013.83
2019-02-24T03:35:58.468Z,1013.88
2019-02-24T03:36:58.491Z,1013.88
2019-02-24T03:37:58.515Z,1013.91
2019-02-24T03:38:58.539Z,1013.87
2019-02-24T03:39:58.568Z,1013.83
2019-02-24T03:40:58.588Z,1013.87
2019-02-24T03:41:58.614Z,1013.86
2019-02-24T03:42:58.635Z,1013.81
2019-02-24T03:43:58.659Z,1013.87
2019-02-24T03:44:58.733Z,1013.84
2019-02-24T03:45:58.708Z,1013.84
2019-02-24T03:46:58.730Z,1013.87
2019-02-24T03:47:58.754Z,1013.90
2019-02-24T03:48:58.778Z,1013.93
2019-02-24T03:49:58.800Z,1013.98
2019-02-24T03:50:58.877Z,1013.98
2019-02-24T03:51:58.850Z,1014.02
2019-02-24T03:52:58.874Z,1014.07
2019-02-24T03:53:58.895Z,1014.03
2019-02-24T03:54:58.927Z,1014.02
2019-02-24T03:55:58.945Z,1013.99
2019-02-24T03:56:58.966Z,1013.97
2019-02-24T03:57:58.996Z,1014.00
2019-02-24T03:58:59.015Z,1014.07
2019-02-24T03:59:59.039Z,1014.05
2019-02-24T04:00:59.061Z,1014.08
2019-02-24T04:01:59.085Z,1014.05
2019-02-24T04:02:59.106Z,1014.06
2019-02-24T04:03:59.135Z,1014.08
2019-02-24T04:04:59.155Z,1014.08
2019-02-24T04:05:59.180Z,1014.04
2019-02-24T04:06:59.203Z,1014.11
2019-02-24T04:07:59.225Z,1014.12
2019-02-24T04:08:59.251Z,1014.10
2019-02-24T04:09:59.273Z,1014.14
2019-02-24T04:10:59.296Z,1014.11
2019-02-24T04:11:59.321Z,1014.15
2019-02-24T04:12:59.345Z,1014.14
2019-02-24T04:13:59.369Z,1014.14
2019-02-24T04:14:59.392Z,1014.14
2019-02-24T04:15:59.416Z,1014.13
2019-02-24T04:16:59.441Z,1014.15
2019-02-24T04:17:59.469Z,1014.14
2019-02-24T04:18:59.488Z,1014.15
2019-02-24T04:19:59.518Z,1014.15
2019-02-24T04:20:59.535Z,1014.17
2019-02-24T04:21:59.561Z,1014.17
2019-02-24T04:22:59.582Z,1014.20
2019-02-24T04:23:59.606Z,1014.18
2019-02-24T04:24:59.629Z,1014.23
2019-02-24T04:25:59.656Z,1014.24
2019-02-24T04:26:59.678Z,1014.25
2019-02-24T04:27:59.702Z,1014.22
2019-02-24T04:28:59.726Z,1014.22
2019-02-24T04:29:59.750Z,1014.24
2019-02-24T04:30:59.773Z,1014.25
2019-02-24T04:31:59.797Z,1014.27
2019-02-24T04:32:59.820Z,1014.29
2019-02-24T04:33:59.844Z,1014.36
2019-02-24T04:34:59.869Z,1014.38
2019-02-24T04:35:59.892Z,1014.39
2019-02-24T04:36:59.918Z,1014.37
2019-02-24T04:37:59.943Z,1014.36
2019-02-24T04:38:59.964Z,1014.40
2019-02-24T04:39:59.988Z,1014.39
2019-02-24T04:41:00.013Z,1014.43
2019-02-24T04:42:00.036Z,1014.45
2019-02-24T04:43:00.061Z,1014.50
2019-02-24T04:44:00.084Z,1014.49
2019-02-24T04:45:00.275Z,1014.52
2019-02-24T04:46:00.132Z,1014.55
2019-02-24T04:47:00.155Z,1014.50
2019-02-24T04:48:00.181Z,1014.49
2019-02-24T04:49:00.201Z,1014.52
2019-02-24T04:50:00.291Z,1014.54
2019-02-24T04:51:00.251Z,1014.58
2019-02-24T04:52:00.275Z,1014.52
2019-02-24T04:53:00.306Z,1014.55
2019-02-24T04:54:00.326Z,1014.59
2019-02-24T04:55:00.405Z,1014.65
2019-02-24T04:56:00.373Z,1014.59
2019-02-24T04:57:00.392Z,1014.67
2019-02-24T04:58:00.419Z,1014.62
2019-02-24T04:59:00.442Z,1014.66
2019-02-24T05:00:00.528Z,1014.67
2019-02-24T05:01:00.488Z,1014.67
2019-02-24T05:02:00.513Z,1014.60
2019-02-24T05:03:00.535Z,1014.62
2019-02-24T05:04:00.561Z,1014.63
2019-02-24T05:05:00.584Z,1014.65
2019-02-24T05:06:00.609Z,1014.67
2019-02-24T05:07:00.633Z,1014.65
2019-02-24T05:08:00.655Z,1014.62
2019-02-24T05:09:00.679Z,1014.63
2019-02-24T05:10:00.701Z,1014.65
2019-02-24T05:11:00.725Z,1014.67
2019-02-24T05:12:00.750Z,1014.61
2019-02-24T05:13:00.772Z,1014.67
2019-02-24T05:14:00.801Z,1014.68
2019-02-24T05:15:00.819Z,1014.71
2019-02-24T05:16:00.844Z,1014.66
2019-02-24T05:17:00.868Z,1014.69
2019-02-24T05:18:00.893Z,1014.71
2019-02-24T05:19:00.915Z,1014.70
2019-02-24T05:20:00.946Z,1014.69
2019-02-24T05:21:00.961Z,1014.70
2019-02-24T05:22:00.985Z,1014.69
2019-02-24T05:23:01.010Z,1014.73
2019-02-24T05:24:01.043Z,1014.71
2019-02-24T05:25:01.056Z,1014.75
2019-02-24T05:26:01.080Z,1014.71
2019-02-24T05:27:01.103Z,1014.73
2019-02-24T05:28:01.134Z,1014.76
2019-02-24T05:29:01.154Z,1014.74
2019-02-24T05:30:01.176Z,1014.80
2019-02-24T05:31:01.197Z,1014.77
2019-02-24T05:32:01.221Z,1014.79
2019-02-24T05:33:01.248Z,1014.83
2019-02-24T05:34:03.890Z,1014.80
2019-02-24T05:35:01.296Z,1014.80
2019-02-24T05:36:01.367Z,1014.79
2019-02-24T05:37:01.338Z,1014.90
2019-02-24T05:38:01.369Z,1014.89
2019-02-24T05:39:01.387Z,1014.92
2019-02-24T05:40:01.411Z,1014.95
2019-02-24T05:41:01.434Z,1015.00
2019-02-24T05:42:01.456Z,1015.04
2019-02-24T05:43:01.513Z,1015.04
2019-02-24T05:44:01.504Z,1015.05
2019-02-24T05:45:01.529Z,1015.03
2019-02-24T05:46:01.554Z,1015.05
2019-02-24T05:47:01.577Z,1015.07
2019-02-24T05:48:01.599Z,1015.13
2019-02-24T05:49:01.620Z,1015.09
2019-02-24T05:50:01.643Z,1015.14
2019-02-24T05:51:01.666Z,1015.17
2019-02-24T05:52:01.691Z,1015.14
2019-02-24T05:53:01.713Z,1015.18
2019-02-24T05:54:01.736Z,1015.16
2019-02-24T05:55:01.761Z,1015.21
2019-02-24T05:56:01.796Z,1015.16
2019-02-24T05:57:01.807Z,1015.16
2019-02-24T05:58:01.830Z,1015.18
2019-02-24T05:59:01.855Z,1015.13
2019-02-24T06:00:01.881Z,1015.11
2019-02-24T06:01:01.900Z,1015.15
2019-02-24T06:02:01.923Z,1015.12
2019-02-24T06:03:01.947Z,1015.17
2019-02-24T06:04:01.969Z,1015.23
2019-02-24T06:05:01.996Z,1015.22
2019-02-24T06:06:02.021Z,1015.20
2019-02-24T06:07:02.055Z,1015.24
2019-02-24T06:08:02.066Z,1015.28
2019-02-24T06:09:02.092Z,1015.24
2019-02-24T06:10:02.112Z,1015.26
2019-02-24T06:11:02.133Z,1015.26
2019-02-24T06:12:02.155Z,1015.25
2019-02-24T06:13:02.179Z,1015.26
2019-02-24T06:14:02.205Z,1015.34
2019-02-24T06:15:02.229Z,1015.29
2019-02-24T06:16:02.248Z,1015.31
2019-02-24T06:17:02.274Z,1015.37
2019-02-24T06:18:02.294Z,1015.32
2019-02-24T06:19:02.318Z,1015.39
2019-02-24T06:20:02.343Z,1015.40
2019-02-24T06:21:02.365Z,1015.51
2019-02-24T06:22:02.387Z,1015.43
2019-02-24T06:23:02.411Z,1015.45
2019-02-24T06:24:02.435Z,1015.44
2019-02-24T06:25:02.459Z,1015.46
2019-02-24T06:26:02.480Z,1015.47
2019-02-24T06:27:02.505Z,1015.49
2019-02-24T06:28:02.527Z,1015.51
2019-02-24T06:29:02.551Z,1015.53
2019-02-24T06:30:05.400Z,1015.55
2019-02-24T06:31:02.601Z,1015.53
2019-02-24T06:32:02.620Z,1015.60
2019-02-24T06:33:02.642Z,1015.61
2019-02-24T06:34:02.665Z,1015.66
2019-02-24T06:35:02.690Z,1015.71
2019-02-24T06:36:02.713Z,1015.68
2019-02-24T06:37:02.735Z,1015.72
2019-02-24T06:38:02.759Z,1015.69
2019-02-24T06:39:02.806Z,1015.68
2019-02-24T06:40:02.805Z,1015.73
2019-02-24T06:41:02.830Z,1015.74
2019-02-24T06:42:02.853Z,1015.78
2019-02-24T06:43:02.876Z,1015.77
2019-02-24T06:44:02.899Z,1015.79
2019-02-24T06:45:02.924Z,1015.84
2019-02-24T06:46:02.949Z,1015.88
2019-02-24T06:47:03.023Z,1015.86
2019-02-24T06:48:02.992Z,1015.89
2019-02-24T06:49:03.018Z,1015.88
2019-02-24T06:50:03.039Z,1015.93
2019-02-24T06:51:03.061Z,1015.90
2019-02-24T06:52:03.085Z,1015.97
2019-02-24T06:53:03.107Z,1015.99
2019-02-24T06:54:03.130Z,1015.94
2019-02-24T06:55:03.153Z,1016.01
2019-02-24T06:56:03.175Z,1016.00
2019-02-24T06:57:03.222Z,1015.96
2019-02-24T06:58:03.223Z,1015.97
2019-02-24T06:59:03.248Z,1015.98
2019-02-24T07:00:03.472Z,1016.07
2019-02-24T07:01:03.301Z,1016.07
2019-02-24T07:02:03.317Z,1016.11
2019-02-24T07:03:03.341Z,1016.11
2019-02-24T07:04:03.364Z,1016.12
2019-02-24T07:05:03.386Z,1016.13
2019-02-24T07:06:03.410Z,1016.13
2019-02-24T07:07:03.435Z,1016.15
2019-02-24T07:08:03.458Z,1016.17
2019-02-24T07:09:03.484Z,1016.24
2019-02-24T07:10:03.503Z,1016.25
2019-02-24T07:11:03.528Z,1016.26
2019-02-24T07:12:03.552Z,1016.29
2019-02-24T07:13:03.574Z,1016.28
2019-02-24T07:14:03.598Z,1016.25
2019-02-24T07:15:03.622Z,1016.20
2019-02-24T07:16:03.647Z,1016.25
2019-02-24T07:17:03.668Z,1016.30
2019-02-24T07:18:03.696Z,1016.30
2019-02-24T07:19:03.739Z,1016.27
2019-02-24T07:20:03.741Z,1016.30
2019-02-24T07:21:03.765Z,1016.31
2019-02-24T07:22:03.817Z,1016.34
2019-02-24T07:23:03.812Z,1016.34
2019-02-24T07:24:03.837Z,1016.26
2019-02-24T07:25:03.882Z,1016.36
2019-02-24T07:26:03.884Z,1016.36
2019-02-24T07:27:03.909Z,1016.34
2019-02-24T07:28:03.934Z,1016.36
2019-02-24T07:29:03.958Z,1016.35
2019-02-24T07:30:03.982Z,1016.38
2019-02-24T07:31:04.007Z,1016.43
2019-02-24T07:32:04.031Z,1016.44
2019-02-24T07:33:04.055Z,1016.44
2019-02-24T07:34:04.084Z,1016.38
2019-02-24T07:35:04.105Z,1016.37
2019-02-24T07:36:04.130Z,1016.41
2019-02-24T07:37:12.604Z,1016.43
2019-02-24T07:38:04.179Z,1016.41
2019-02-24T07:39:04.205Z,1016.43
2019-02-24T07:40:04.228Z,1016.44
2019-02-24T07:41:04.255Z,1016.48
2019-02-24T07:42:04.280Z,1016.46
2019-02-24T07:43:04.308Z,1016.49
2019-02-24T07:44:04.331Z,1016.51
2019-02-24T07:45:04.361Z,1016.49
2019-02-24T07:46:04.380Z,1016.47
2019-02-24T07:47:04.407Z,1016.43
2019-02-24T07:48:04.433Z,1016.43
2019-02-24T07:49:04.457Z,1016.42
2019-02-24T07:50:04.482Z,1016.44
2019-02-24T07:51:04.508Z,1016.41
2019-02-24T07:52:04.534Z,1016.45
2019-02-24T07:53:04.559Z,1016.46
2019-02-24T07:54:04.585Z,1016.43
2019-02-24T07:55:04.612Z,1016.44
2019-02-24T07:56:04.638Z,1016.43
2019-02-24T07:57:04.663Z,1016.42
2019-02-24T07:58:04.706Z,1016.45
2019-02-24T07:59:04.717Z,1016.42
2019-02-24T08:00:04.741Z,1016.45
2019-02-24T08:01:04.768Z,1016.40
2019-02-24T08:02:04.793Z,1016.43
2019-02-24T08:03:04.820Z,1016.44
2019-02-24T08:04:04.846Z,1016.49
2019-02-24T08:05:04.872Z,1016.49
2019-02-24T08:06:04.898Z,1016.46
2019-02-24T08:07:04.925Z,1016.49
2019-02-24T08:08:04.952Z,1016.50
2019-02-24T08:09:04.977Z,1016.51
2019-02-24T08:10:05.004Z,1016.49
2019-02-24T08:11:05.031Z,1016.56
2019-02-24T08:12:05.060Z,1016.58
2019-02-24T08:13:05.085Z,1016.63
2019-02-24T08:14:05.114Z,1016.64
2019-02-24T08:15:05.139Z,1016.63
2019-02-24T08:16:05.167Z,1016.67
2019-02-24T08:17:05.194Z,1016.66
2019-02-24T08:18:05.221Z,1016.66
2019-02-24T08:19:05.250Z,1016.75
2019-02-24T08:20:05.280Z,1016.77
2019-02-24T08:21:05.374Z,1016.73
2019-02-24T08:22:05.334Z,1016.70
2019-02-24T08:23:05.363Z,1016.77
2019-02-24T08:24:05.391Z,1016.72
2019-02-24T08:25:05.419Z,1016.74
2019-02-24T08:26:05.448Z,1016.67
2019-02-24T08:27:05.477Z,1016.76
2019-02-24T08:28:05.543Z,1016.70
2019-02-24T08:29:05.534Z,1016.74
2019-02-24T08:30:05.564Z,1016.80
2019-02-24T08:31:05.593Z,1016.75
2019-02-24T08:32:05.625Z,1016.77
2019-02-24T08:33:05.654Z,1016.75
2019-02-24T08:34:05.683Z,1016.72
2019-02-24T08:35:05.713Z,1016.69
2019-02-24T08:36:05.744Z,1016.74
2019-02-24T08:37:05.780Z,1016.72
2019-02-24T08:38:05.805Z,1016.74
2019-02-24T08:39:05.836Z,1016.69
2019-02-24T08:40:05.869Z,1016.72
2019-02-24T08:41:05.898Z,1016.73
2019-02-24T08:42:05.929Z,1016.79
2019-02-24T08:43:05.960Z,1016.70
2019-02-24T08:44:05.993Z,1016.74
2019-02-24T08:45:06.025Z,1016.75
2019-02-24T08:46:06.058Z,1016.76
2019-02-24T08:47:06.088Z,1016.81
2019-02-24T08:48:06.121Z,1016.84
2019-02-24T08:49:06.152Z,1016.81
2019-02-24T08:50:06.185Z,1016.83
2019-02-24T08:51:06.218Z,1016.83
2019-02-24T08:52:06.251Z,1016.80
2019-02-24T08:53:06.282Z,1016.81
2019-02-24T08:54:06.318Z,1016.83
2019-02-24T08:55:06.349Z,1016.84
2019-02-24T08:56:06.383Z,1016.90
2019-02-24T08:57:06.415Z,1016.91
2019-02-24T08:58:06.449Z,1016.90
2019-02-24T08:59:06.483Z,1016.90
2019-02-24T09:00:06.518Z,1016.90
2019-02-24T09:01:06.551Z,1016.91
2019-02-24T09:02:06.585Z,1016.97
2019-02-24T09:03:06.619Z,1017.01
2019-02-24T09:04:06.653Z,1016.99
2019-02-24T09:05:06.687Z,1016.97
2019-02-24T09:06:06.722Z,1016.99
2019-02-24T09:07:08.526Z,1016.97
2019-02-24T09:08:06.792Z,1016.99
2019-02-24T09:09:06.826Z,1017.00
2019-02-24T09:10:06.861Z,1017.05
2019-02-24T09:11:06.897Z,1017.05
2019-02-24T09:12:06.933Z,1017.00
2019-02-24T09:13:06.967Z,1017.01
2019-02-24T09:14:07.002Z,1017.02
2019-02-24T09:15:07.243Z,1017.02
2019-02-24T09:16:07.131Z,1017.02
2019-02-24T09:17:07.109Z,1017.04
2019-02-24T09:19:09.830Z,1017.13
2019-02-24T09:21:07.308Z,1017.19
2019-02-24T09:22:07.319Z,1017.20
2019-02-24T09:23:07.348Z,1017.23
2019-02-24T09:25:07.401Z,1017.27
2019-02-24T09:26:07.462Z,1017.33
2019-02-24T09:28:07.529Z,1017.22
2019-02-24T09:29:07.544Z,1017.27
2019-02-24T09:30:07.582Z,1017.25
2019-02-24T09:31:07.618Z,1017.26
2019-02-24T09:32:07.656Z,1017.25
2019-02-24T09:33:07.691Z,1017.28
2019-02-24T09:34:07.728Z,1017.30
2019-02-24T09:35:07.767Z,1017.31
2019-02-24T09:36:07.804Z,1017.30
2019-02-24T09:37:08.043Z,1017.30
2019-02-24T09:38:07.878Z,1017.35
2019-02-24T09:39:07.917Z,1017.39
2019-02-24T09:40:07.954Z,1017.37
2019-02-24T09:41:07.992Z,1017.35
2019-02-24T09:42:08.030Z,1017.36
2019-02-24T09:43:08.067Z,1017.38
2019-02-24T09:44:08.107Z,1017.37
2019-02-24T09:45:08.145Z,1017.35
2019-02-24T09:46:08.207Z,1017.36
2019-02-24T09:47:08.222Z,1017.38
2019-02-24T09:48:08.262Z,1017.41
2019-02-24T09:49:08.299Z,1017.43
2019-02-24T09:50:08.338Z,1017.32
2019-02-24T09:51:08.427Z,1017.28
2019-02-24T09:52:08.416Z,1017.28
2019-02-24T09:53:08.458Z,1017.35
2019-02-24T09:54:08.496Z,1017.37
2019-02-24T09:55:08.533Z,1017.41
2019-02-24T09:56:08.575Z,1017.38
2019-02-24T09:57:08.612Z,1017.37
2019-02-24T09:58:08.652Z,1017.45
2019-02-24T09:59:08.695Z,1017.50
2019-02-24T10:00:08.732Z,1017.45
2019-02-24T10:01:10.965Z,1017.44
2019-02-24T10:02:08.811Z,1017.43
2019-02-24T10:03:08.853Z,1017.46
2019-02-24T10:04:08.893Z,1017.48
2019-02-24T10:05:08.931Z,1017.49
2019-02-24T10:06:08.973Z,1017.48
2019-02-24T10:07:09.012Z,1017.51
2019-02-24T10:08:09.053Z,1017.51
2019-02-24T10:09:09.092Z,1017.51
2019-02-24T10:10:09.133Z,1017.56
2019-02-24T10:11:09.172Z,1017.55
2019-02-24T10:12:09.215Z,1017.60
2019-02-24T10:13:09.259Z,1017.56
2019-02-24T10:14:09.294Z,1017.62
2019-02-24T10:15:09.335Z,1017.61
2019-02-24T10:16:09.375Z,1017.59
2019-02-24T10:17:09.415Z,1017.60
2019-02-24T10:18:09.457Z,1017.61
2019-02-24T10:19:09.496Z,1017.62
2019-02-24T10:20:09.537Z,1017.52
2019-02-24T10:21:09.577Z,1017.59
2019-02-24T10:22:09.618Z,1017.61
2019-02-24T10:23:09.658Z,1017.60
2019-02-24T10:24:09.699Z,1017.60
2019-02-24T10:25:09.741Z,1017.60
2019-02-24T10:26:09.781Z,1017.64
2019-02-24T10:27:09.821Z,1017.64
2019-02-24T10:28:09.871Z,1017.63
2019-02-24T10:29:09.903Z,1017.64
2019-02-24T10:30:09.945Z,1017.63
2019-02-24T10:31:09.995Z,1017.60
2019-02-24T10:32:10.030Z,1017.60
2019-02-24T10:33:10.076Z,1017.65
2019-02-24T10:34:10.110Z,1017.66
2019-02-24T10:35:10.156Z,1017.70
2019-02-24T10:36:10.192Z,1017.69
2019-02-24T10:37:10.233Z,1017.70
2019-02-24T10:38:10.276Z,1017.66
2019-02-24T10:39:10.318Z,1017.69
2019-02-24T10:40:12.374Z,1017.70
2019-02-24T10:41:10.403Z,1017.71
2019-02-24T10:42:10.443Z,1017.76
2019-02-24T10:43:10.488Z,1017.78
2019-02-24T10:44:10.533Z,1017.79
2019-02-24T10:45:10.572Z,1017.80
2019-02-24T10:46:11.436Z,1017.71
2019-02-24T10:47:10.657Z,1017.68
2019-02-24T10:48:14.061Z,1017.67
2019-02-24T10:49:10.739Z,1017.75
2019-02-24T10:50:10.782Z,1017.87
2019-02-24T10:51:10.825Z,1017.85
2019-02-24T10:52:10.868Z,1017.85
2019-02-24T10:53:10.909Z,1017.85
2019-02-24T10:54:10.953Z,1017.86
2019-02-24T10:55:10.997Z,1017.91
2019-02-24T10:56:11.040Z,1017.91
2019-02-24T10:57:12.969Z,1017.93
2019-02-24T10:58:11.124Z,1017.91
2019-02-24T10:59:11.166Z,1017.99
2019-02-24T11:00:11.236Z,1017.94
2019-02-24T11:01:11.252Z,1017.96
2019-02-24T11:02:11.296Z,1017.96
2019-02-24T11:03:11.339Z,1017.93
2019-02-24T11:04:11.382Z,1017.99
2019-02-24T11:05:11.424Z,1017.95
2019-02-24T11:06:11.478Z,1017.96
2019-02-24T11:07:11.510Z,1017.93
2019-02-24T11:08:11.554Z,1017.89
2019-02-24T11:09:11.597Z,1017.85
2019-02-24T11:10:11.640Z,1017.90
2019-02-24T11:11:11.683Z,1017.84
2019-02-24T11:12:11.727Z,1017.92
2019-02-24T11:13:11.771Z,1017.92
2019-02-24T11:14:11.814Z,1017.91
2019-02-24T11:15:11.858Z,1017.88
2019-02-24T11:16:11.901Z,1017.88
2019-02-24T11:17:11.947Z,1017.92
2019-02-24T11:18:11.988Z,1017.87
2019-02-24T11:19:12.033Z,1017.85
2019-02-24T11:20:12.076Z,1017.85
2019-02-24T11:21:12.125Z,1017.79
2019-02-24T11:22:12.164Z,1017.80
2019-02-24T11:23:12.209Z,1017.84
2019-02-24T11:24:12.255Z,1017.85
2019-02-24T11:25:12.499Z,1017.84
2019-02-24T11:26:12.340Z,1017.88
2019-02-24T11:27:12.408Z,1017.84
2019-02-24T11:28:12.429Z,1017.89
2019-02-24T11:29:12.473Z,1017.85
2019-02-24T11:30:12.517Z,1017.90
2019-02-24T11:31:12.564Z,1017.82
2019-02-24T11:32:12.606Z,1017.84
2019-02-24T11:33:12.649Z,1017.85
2019-02-24T11:34:12.698Z,1017.83
2019-02-24T11:35:12.740Z,1017.85
2019-02-24T11:36:12.784Z,1017.85
2019-02-24T11:37:12.830Z,1017.86
2019-02-24T11:38:12.873Z,1017.83
2019-02-24T11:39:12.922Z,1017.82
2019-02-24T11:40:12.962Z,1017.78
2019-02-24T11:41:13.006Z,1017.80
2019-02-24T11:42:13.051Z,1017.86
2019-02-24T11:43:13.097Z,1017.83
2019-02-24T11:44:13.141Z,1017.84
2019-02-24T11:45:13.185Z,1017.86
2019-02-24T11:46:13.231Z,1018.01
2019-02-24T11:47:13.277Z,1017.97
2019-02-24T11:48:13.322Z,1017.91
2019-02-24T11:49:13.366Z,1017.85
2019-02-24T11:50:13.416Z,1017.86
2019-02-24T11:51:13.457Z,1017.85
2019-02-24T11:52:13.501Z,1017.84
2019-02-24T11:53:13.545Z,1017.81
2019-02-24T11:54:13.590Z,1017.78
2019-02-24T11:55:13.635Z,1017.75
2019-02-24T11:56:13.681Z,1017.72
2019-02-24T11:57:13.725Z,1017.70
2019-02-24T11:58:13.771Z,1017.72
2019-02-24T11:59:13.817Z,1017.75
2019-02-24T12:00:13.864Z,1017.74
2019-02-24T12:01:13.906Z,1017.73
2019-02-24T12:02:13.952Z,1017.76
2019-02-24T12:03:13.997Z,1017.72
2019-02-24T12:04:14.043Z,1017.73
2019-02-24T12:05:14.090Z,1017.75
2019-02-24T12:06:14.133Z,1017.69
2019-02-24T12:07:14.180Z,1017.67
2019-02-24T12:08:14.224Z,1017.73
2019-02-24T12:09:14.270Z,1017.76
2019-02-24T12:10:14.316Z,1017.74